createdAt,value
2022-12-05T00:01:28.963Z,28.40
2022-12-05T00:03:59.018Z,28.77
2022-12-05T00:06:29.025Z,28.50
2022-12-05T00:08:57.714Z,28.87
2022-12-05T00:11:27.987Z,26.47
2022-12-05T00:13:59.551Z,30.30
2022-12-05T00:16:30.700Z,29.27
2022-12-05T00:19:00.772Z,28.43
2022-12-05T00:21:30.631Z,29.17
2022-12-05T00:23:59.758Z,31.73
2022-12-05T00:26:28.181Z,28.67
2022-12-05T00:28:57.821Z,27.87
2022-12-05T00:31:27.135Z,31.43
2022-12-05T00:33:55.594Z,29.73
2022-12-05T00:36:25.326Z,32.57
2022-12-05T00:38:53.817Z,28.53
2022-12-05T00:41:27.432Z,28.43
2022-12-05T00:43:57.422Z,28.83
2022-12-05T00:46:27.702Z,25.83
2022-12-05T00:48:56.607Z,32.97
2022-12-05T00:51:29.964Z,28.07
2022-12-05T00:54:00.153Z,30.57
2022-12-05T00:56:30.425Z,27.00
2022-12-05T00:59:01.107Z,29.60
2022-12-05T01:01:32.549Z,26.90
2022-12-05T01:04:03.192Z,28.60
2022-12-05T01:06:31.811Z,28.33
2022-12-05T01:08:59.866Z,27.80
2022-12-05T01:11:28.231Z,29.93
2022-12-05T01:13:57.107Z,27.60
2022-12-05T01:16:28.024Z,29.93
2022-12-05T01:18:56.338Z,33.00
2022-12-05T01:21:24.987Z,27.17
2022-12-05T01:23:52.992Z,27.17
2022-12-05T01:26:22.503Z,29.27
2022-12-05T01:28:50.835Z,28.03
2022-12-05T01:31:23.829Z,30.00
2022-12-05T01:33:54.732Z,26.57
2022-12-05T01:36:22.970Z,27.90
2022-12-05T01:38:51.179Z,27.47
2022-12-05T01:41:20.977Z,29.57
2022-12-05T01:43:58.101Z,28.63
2022-12-05T01:46:26.968Z,28.57
2022-12-05T01:49:00.882Z,30.27
2022-12-05T01:51:28.821Z,30.23
2022-12-05T01:53:56.536Z,30.77
2022-12-05T01:56:24.271Z,29.13
2022-12-05T01:58:53.804Z,28.30
2022-12-05T02:01:21.811Z,29.93
2022-12-05T02:03:53.854Z,28.43
2022-12-05T02:06:24.412Z,31.90
2022-12-05T02:08:52.896Z,32.40
2022-12-05T02:11:21.196Z,31.30
2022-12-05T02:14:00.528Z,33.57
2022-12-05T02:16:42.705Z,35.23
2022-12-05T02:19:52.696Z,27.40
2022-12-05T02:22:53.354Z,30.37
2022-12-05T02:25:44.997Z,30.00
2022-12-05T02:28:43.463Z,35.40
2022-12-05T02:31:18.038Z,33.00
2022-12-05T02:33:49.967Z,30.63
2022-12-05T02:36:23.861Z,33.00
2022-12-05T02:39:01.417Z,34.57
2022-12-05T02:41:36.387Z,30.57
2022-12-05T02:44:06.984Z,33.00
2022-12-05T02:46:39.764Z,30.30
2022-12-05T02:49:11.395Z,32.53
2022-12-05T02:51:43.931Z,33.73
2022-12-05T02:54:15.966Z,33.17
2022-12-05T02:56:46.347Z,33.17
2022-12-05T02:59:18.500Z,28.53
2022-12-05T03:01:50.975Z,30.57
2022-12-05T03:04:21.505Z,34.03
2022-12-05T03:06:53.748Z,38.50
2022-12-05T03:09:25.753Z,31.40
2022-12-05T03:11:57.474Z,30.50
2022-12-05T03:14:30.165Z,37.80
2022-12-05T03:17:04.506Z,36.73
2022-12-05T03:19:41.289Z,35.03
2022-12-05T03:22:16.412Z,35.13
2022-12-05T03:24:47.510Z,35.03
2022-12-05T03:27:24.101Z,32.90
2022-12-05T03:29:57.631Z,38.63
2022-12-05T03:32:34.763Z,36.17
2022-12-05T03:35:08.906Z,35.97
2022-12-05T03:37:45.157Z,40.50
2022-12-05T03:40:23.937Z,39.83
2022-12-05T03:42:57.892Z,34.10
2022-12-05T03:45:33.179Z,36.80
2022-12-05T03:48:09.006Z,36.07
2022-12-05T03:50:41.011Z,34.77
2022-12-05T03:53:20.329Z,37.17
2022-12-05T03:55:55.704Z,36.73
2022-12-05T03:58:28.470Z,36.97
2022-12-05T04:00:59.628Z,40.33
2022-12-05T04:03:39.766Z,38.43
2022-12-05T04:06:14.016Z,39.13
2022-12-05T04:08:48.294Z,32.50
2022-12-05T04:11:19.711Z,30.27
2022-12-05T04:13:51.447Z,39.30
2022-12-05T04:16:41.483Z,35.40
2022-12-05T04:19:16.538Z,39.00
2022-12-05T04:21:47.468Z,37.30
2022-12-05T04:24:51.685Z,41.83
2022-12-05T04:27:28.895Z,35.90
2022-12-05T04:30:03.910Z,38.17
2022-12-05T04:32:38.242Z,44.97
2022-12-05T04:35:14.690Z,38.63
2022-12-05T04:37:45.702Z,43.10
2022-12-05T04:40:20.196Z,38.10
2022-12-05T04:42:50.621Z,40.13
2022-12-05T04:45:21.195Z,42.37
2022-12-05T04:47:52.581Z,41.93
2022-12-05T04:50:24.091Z,44.43
2022-12-05T04:52:56.735Z,41.17
2022-12-05T04:55:28.096Z,38.87
2022-12-05T04:58:02.851Z,37.17
2022-12-05T05:00:32.483Z,40.77
2022-12-05T05:03:07.496Z,40.93
2022-12-05T05:05:40.278Z,37.50
2022-12-05T05:08:17.860Z,42.37
2022-12-05T05:10:53.532Z,43.80
2022-12-05T05:13:21.220Z,44.40
2022-12-05T05:15:49.037Z,35.70
2022-12-05T05:18:16.741Z,42.33
2022-12-05T05:20:45.826Z,39.17
2022-12-05T05:23:13.639Z,40.60
2022-12-05T05:25:41.389Z,41.87
2022-12-05T05:28:09.083Z,44.17
2022-12-05T05:30:36.715Z,41.70
2022-12-05T05:33:04.383Z,41.00
2022-12-05T05:35:32.082Z,42.63
2022-12-05T05:38:01.105Z,46.70
2022-12-05T05:40:28.806Z,49.10
2022-12-05T05:42:56.463Z,41.43
2022-12-05T05:45:24.129Z,40.60
2022-12-05T05:47:52.046Z,42.83
2022-12-05T05:50:22.025Z,41.73
2022-12-05T05:52:49.845Z,43.40
2022-12-05T05:55:19.009Z,41.17
2022-12-05T05:57:46.751Z,37.87
2022-12-05T06:00:15.664Z,36.87
2022-12-05T06:02:43.993Z,38.87
2022-12-05T06:05:11.908Z,39.97
2022-12-05T06:07:39.682Z,37.63
2022-12-05T06:10:08.799Z,40.23
2022-12-05T06:12:37.877Z,35.47
2022-12-05T06:15:06.518Z,39.77
2022-12-05T06:17:34.184Z,43.97
2022-12-05T06:20:01.840Z,44.50
2022-12-05T06:22:30.685Z,37.97
2022-12-05T06:24:58.478Z,38.93
2022-12-05T06:27:26.301Z,37.83
2022-12-05T06:29:55.848Z,41.27
2022-12-05T06:32:23.792Z,44.55
2022-12-05T06:34:51.491Z,38.83
2022-12-05T06:37:19.190Z,40.27
2022-12-05T06:39:47.009Z,37.77
2022-12-05T06:42:14.693Z,39.00
2022-12-05T06:44:42.331Z,41.87
2022-12-05T06:47:11.339Z,38.57
2022-12-05T06:49:39.069Z,42.97
2022-12-05T06:52:06.826Z,39.73
2022-12-05T06:54:34.668Z,44.43
2022-12-05T06:57:02.376Z,39.83
2022-12-05T06:59:30.053Z,41.30
2022-12-05T07:01:56.845Z,41.87
2022-12-05T07:04:25.994Z,40.10
2022-12-05T07:06:55.817Z,44.73
2022-12-05T07:09:45.917Z,40.67
2022-12-05T07:12:14.648Z,39.03
2022-12-05T07:14:50.352Z,38.33
2022-12-05T07:17:18.676Z,41.20
2022-12-05T07:19:49.440Z,42.07
2022-12-05T07:22:17.227Z,43.53
2022-12-05T07:24:45.384Z,48.27
2022-12-05T07:27:13.797Z,43.87
2022-12-05T07:29:41.766Z,46.27
2022-12-05T07:32:09.886Z,46.97
2022-12-05T07:34:38.673Z,46.17
2022-12-05T07:37:08.139Z,50.30
2022-12-05T07:39:35.947Z,42.90
2022-12-05T07:42:03.610Z,42.30
2022-12-05T07:44:31.669Z,45.43
2022-12-05T07:46:59.651Z,43.00
2022-12-05T07:49:27.644Z,46.40
2022-12-05T07:51:55.404Z,45.50
2022-12-05T07:54:24.684Z,50.70
2022-12-05T07:56:52.546Z,41.03
2022-12-05T07:59:20.379Z,43.03
2022-12-05T08:01:48.207Z,46.00
2022-12-05T08:04:16.198Z,43.30
2022-12-05T08:06:44.121Z,46.20
2022-12-05T08:09:12.747Z,47.50
2022-12-05T08:11:41.865Z,37.60
2022-12-05T08:14:09.575Z,51.33
2022-12-05T08:16:37.680Z,38.40
2022-12-05T08:19:07.479Z,47.07
2022-12-05T08:21:35.760Z,39.40
2022-12-05T08:24:05.558Z,38.37
2022-12-05T08:26:34.927Z,46.70
2022-12-05T08:29:07.201Z,41.50
2022-12-05T08:31:37.422Z,43.77
2022-12-05T08:34:05.245Z,40.47
2022-12-05T08:36:33.281Z,41.87
2022-12-05T08:39:05.226Z,36.83
2022-12-05T08:41:33.472Z,36.30
2022-12-05T08:44:04.107Z,43.37
2022-12-05T08:46:34.599Z,38.10
2022-12-05T08:49:03.063Z,36.10
2022-12-05T08:51:30.800Z,40.77
2022-12-05T08:53:58.526Z,40.67
2022-12-05T08:56:27.496Z,38.23
2022-12-05T08:59:01.236Z,38.53
2022-12-05T09:01:37.174Z,36.23
2022-12-05T09:04:06.493Z,37.30
2022-12-05T09:06:35.683Z,36.13
2022-12-05T09:09:07.725Z,42.23
2022-12-05T09:11:37.716Z,37.93
2022-12-05T09:14:06.125Z,39.30
2022-12-05T09:16:39.073Z,37.63
2022-12-05T09:19:11.797Z,35.93
2022-12-05T09:21:39.780Z,42.73
2022-12-05T09:24:07.629Z,43.40
2022-12-05T09:26:35.321Z,42.43
2022-12-05T09:29:04.059Z,38.37
2022-12-05T09:31:31.971Z,41.70
2022-12-05T09:34:01.997Z,39.17
2022-12-05T09:36:31.819Z,36.23
2022-12-05T09:39:02.799Z,38.60
2022-12-05T09:42:08.978Z,38.73
2022-12-05T09:44:55.323Z,32.90
2022-12-05T09:47:32.596Z,34.60
2022-12-05T09:50:12.071Z,33.90
2022-12-05T09:52:42.561Z,32.47
2022-12-05T09:55:14.321Z,44.73
2022-12-05T09:57:46.481Z,39.63
2022-12-05T10:00:15.655Z,34.00
2022-12-05T10:02:57.206Z,35.60
2022-12-05T10:05:30.479Z,39.93
2022-12-05T10:08:07.454Z,40.53
2022-12-05T10:10:46.656Z,34.07
2022-12-05T10:13:29.193Z,32.97
2022-12-05T10:16:01.722Z,34.77
2022-12-05T10:18:38.507Z,39.10
2022-12-05T10:21:15.972Z,37.67
2022-12-05T10:23:57.961Z,37.23
2022-12-05T10:26:29.894Z,35.07
2022-12-05T10:29:03.982Z,35.53
2022-12-05T10:31:36.030Z,32.40
2022-12-05T10:34:12.936Z,38.93
2022-12-05T10:36:45.642Z,36.97
2022-12-05T10:39:13.410Z,37.20
2022-12-05T10:41:41.080Z,35.93
2022-12-05T10:44:09.977Z,36.57
2022-12-05T10:46:37.725Z,34.00
2022-12-05T10:49:11.811Z,35.03
2022-12-05T10:51:40.518Z,35.47
2022-12-05T10:54:18.765Z,35.63
2022-12-05T10:56:47.992Z,37.23
2022-12-05T10:59:17.989Z,37.47
2022-12-05T11:01:49.418Z,38.37
2022-12-05T11:04:30.224Z,41.30
2022-12-05T11:07:00.893Z,36.77
2022-12-05T11:09:32.404Z,36.37
2022-12-05T11:12:15.629Z,34.87
2022-12-05T11:14:55.758Z,35.00
2022-12-05T11:17:26.803Z,35.20
2022-12-05T11:19:54.510Z,39.67
2022-12-05T11:22:32.452Z,32.73
2022-12-05T11:25:01.867Z,33.40
2022-12-05T11:27:33.003Z,34.83
2022-12-05T11:30:04.581Z,33.67
2022-12-05T11:32:34.346Z,35.53
2022-12-05T11:35:10.668Z,36.60
2022-12-05T11:37:45.472Z,34.63
2022-12-05T11:40:35.199Z,35.83
2022-12-05T11:43:28.723Z,33.53
2022-12-05T11:46:07.172Z,33.40
2022-12-05T11:48:59.683Z,30.57
2022-12-05T11:51:40.024Z,34.60
2022-12-05T11:57:51.794Z,33.07
2022-12-05T12:00:23.608Z,36.17
2022-12-05T12:03:29.842Z,35.07
2022-12-05T12:06:21.459Z,32.80
2022-12-05T12:09:05.891Z,29.70
2022-12-05T12:11:38.981Z,26.73
2022-12-05T12:14:18.503Z,32.87
2022-12-05T12:16:54.776Z,29.17
2022-12-05T12:19:45.976Z,30.97
2022-12-05T12:22:32.149Z,30.20
2022-12-05T12:25:16.028Z,31.70
2022-12-05T12:27:53.893Z,28.77
2022-12-05T12:30:29.680Z,31.43
2022-12-05T12:33:05.950Z,32.63
2022-12-05T12:35:39.948Z,35.33
2022-12-05T12:38:33.196Z,34.50
2022-12-05T12:41:13.059Z,30.83
2022-12-05T12:43:54.010Z,30.80
2022-12-05T12:46:39.126Z,37.97
2022-12-05T12:49:23.383Z,38.27
2022-12-05T12:51:54.893Z,34.30
2022-12-05T12:55:02.815Z,29.17
2022-12-05T12:57:40.929Z,28.80
2022-12-05T13:00:24.857Z,32.47
2022-12-05T13:03:01.354Z,36.97
2022-12-05T13:05:35.358Z,37.03
2022-12-05T13:08:07.978Z,31.60
2022-12-05T13:10:40.673Z,30.80
2022-12-05T13:13:12.100Z,29.70
2022-12-05T13:15:44.574Z,28.47
2022-12-05T13:18:18.114Z,27.27
2022-12-05T13:20:49.181Z,28.77
2022-12-05T13:23:20.569Z,29.27
2022-12-05T13:25:50.171Z,29.93
2022-12-05T13:28:26.899Z,29.10
2022-12-05T13:31:04.082Z,26.83
2022-12-05T13:33:36.509Z,26.90
2022-12-05T13:36:25.446Z,30.07
2022-12-05T13:39:16.454Z,29.93
2022-12-05T13:42:03.993Z,28.90
2022-12-05T13:44:37.126Z,27.57
2022-12-05T13:47:09.200Z,26.67
2022-12-05T13:49:45.922Z,29.60
2022-12-05T13:52:20.811Z,28.43
2022-12-05T13:54:55.557Z,26.77
2022-12-05T13:58:00.085Z,28.30
2022-12-05T14:00:33.264Z,26.53
2022-12-05T14:03:06.989Z,23.97
2022-12-05T14:05:53.308Z,26.37
2022-12-05T14:09:02.619Z,26.27
2022-12-05T14:11:30.537Z,26.63
2022-12-05T14:14:04.247Z,24.87
2022-12-05T14:16:45.650Z,25.93
2022-12-05T14:20:01.111Z,26.40
2022-12-05T14:22:59.703Z,23.43
2022-12-05T14:25:58.821Z,24.67
2022-12-05T14:28:48.573Z,21.50
2022-12-05T14:31:34.158Z,23.53
2022-12-05T14:34:12.074Z,21.47
2022-12-05T14:36:40.904Z,19.67
2022-12-05T14:39:23.824Z,21.33
2022-12-05T14:41:58.468Z,18.93
2022-12-05T14:44:32.032Z,20.93
2022-12-05T14:47:03.172Z,15.60
2022-12-05T14:49:53.786Z,14.30
2022-12-05T14:52:24.526Z,16.30
2022-12-05T14:54:57.225Z,12.73
2022-12-05T14:57:25.890Z,14.10
2022-12-05T14:59:58.501Z,15.53
2022-12-05T15:02:31.117Z,13.67
2022-12-05T15:05:04.707Z,15.30
2022-12-05T15:07:35.061Z,12.33
2022-12-05T15:10:07.710Z,8.43
2022-12-05T15:12:41.457Z,9.50
2022-12-05T15:15:15.415Z,5.77
2022-12-05T15:17:47.535Z,5.83
2022-12-05T15:20:40.103Z,5.67
2022-12-05T15:23:38.798Z,7.80
2022-12-05T15:26:45.534Z,5.27
2022-12-05T15:29:08.918Z,6.50
2022-12-05T15:31:39.483Z,6.17
2022-12-05T15:34:15.844Z,5.93
2022-12-05T15:36:48.906Z,7.43
2022-12-05T15:39:23.640Z,6.73
2022-12-05T15:41:53.607Z,4.37
2022-12-05T15:44:27.126Z,5.03
2022-12-05T15:46:57.528Z,7.40
2022-12-05T15:49:26.947Z,5.17
2022-12-05T15:51:59.461Z,5.70
2022-12-05T15:54:32.293Z,4.13
2022-12-05T15:57:06.659Z,5.63
2022-12-05T15:59:38.422Z,7.87
2022-12-05T16:02:16.252Z,5.43
2022-12-05T16:04:48.239Z,8.07
2022-12-05T16:07:16.579Z,8.30
2022-12-05T16:09:47.308Z,10.53
2022-12-05T16:12:28.050Z,11.23
2022-12-05T16:15:01.670Z,9.83
2022-12-05T16:17:31.619Z,9.20
2022-12-05T16:20:12.285Z,7.10
2022-12-05T16:22:45.348Z,9.10
2022-12-05T16:25:16.506Z,5.50
2022-12-05T16:27:57.670Z,5.10
2022-12-05T16:30:26.131Z,6.30
2022-12-05T16:33:01.694Z,5.80
2022-12-05T16:35:38.688Z,6.47
2022-12-05T16:38:21.372Z,7.43
2022-12-05T16:40:55.251Z,5.83
2022-12-05T16:43:42.183Z,6.20
2022-12-05T16:46:41.811Z,6.67
2022-12-05T16:49:19.274Z,5.93
2022-12-05T16:51:55.828Z,5.73
2022-12-05T16:54:23.518Z,4.70
2022-12-05T16:56:51.480Z,4.07
2022-12-05T16:59:25.149Z,6.37
2022-12-05T17:01:52.987Z,5.50
2022-12-05T17:04:20.860Z,7.87
2022-12-05T17:06:48.629Z,7.77
2022-12-05T17:09:16.472Z,7.20
2022-12-05T17:11:46.858Z,8.97
2022-12-05T17:14:16.154Z,6.77
2022-12-05T17:16:45.584Z,6.83
2022-12-05T17:19:13.895Z,7.83
2022-12-05T17:21:43.085Z,5.93
2022-12-05T17:24:17.256Z,5.40
2022-12-05T17:26:45.314Z,7.40
2022-12-05T17:29:13.170Z,5.20
2022-12-05T17:31:41.017Z,4.90
2022-12-05T17:34:16.866Z,5.87
2022-12-05T17:36:44.831Z,4.27
2022-12-05T17:39:12.772Z,4.40
2022-12-05T17:41:40.690Z,5.63
2022-12-05T17:44:08.979Z,5.00
2022-12-05T17:46:36.720Z,5.73
2022-12-05T17:49:04.479Z,6.83
2022-12-05T17:51:33.520Z,4.70
2022-12-05T17:54:01.376Z,4.57
2022-12-05T17:56:29.084Z,5.03
2022-12-05T17:58:56.791Z,4.53
2022-12-05T18:01:24.587Z,5.37
2022-12-05T18:03:52.439Z,4.67
2022-12-05T18:06:20.196Z,4.07
2022-12-05T18:08:49.794Z,7.10
2022-12-05T18:11:17.521Z,9.90
2022-12-05T18:13:45.242Z,19.77
2022-12-05T18:16:13.039Z,20.33
2022-12-05T18:18:41.037Z,15.87
2022-12-05T18:21:09.986Z,10.60
2022-12-05T18:23:39.296Z,8.43
2022-12-05T18:26:13.100Z,5.27
2022-12-05T18:28:41.128Z,6.53
2022-12-05T18:31:10.736Z,4.47
2022-12-05T18:33:38.643Z,5.27
2022-12-05T18:36:08.998Z,3.80
2022-12-05T18:38:37.205Z,5.03
2022-12-05T18:41:06.351Z,4.47
2022-12-05T18:43:37.485Z,5.33
2022-12-05T18:46:05.920Z,4.30
2022-12-05T18:48:40.859Z,4.47
2022-12-05T18:51:11.005Z,6.43
2022-12-05T18:53:39.252Z,5.13
2022-12-05T18:56:24.611Z,5.03
2022-12-05T18:58:58.774Z,3.67
2022-12-05T19:01:27.868Z,3.53
2022-12-05T19:03:56.068Z,3.70
2022-12-05T19:06:25.748Z,3.80
2022-12-05T19:08:55.374Z,6.07
2022-12-05T19:11:23.501Z,4.50
2022-12-05T19:13:51.350Z,6.57
2022-12-05T19:16:20.470Z,7.60
2022-12-05T19:18:48.392Z,10.93
2022-12-05T19:21:16.311Z,7.13
2022-12-05T19:23:43.964Z,8.83
2022-12-05T19:26:12.046Z,5.97
2022-12-05T19:28:39.769Z,7.50
2022-12-05T19:31:09.950Z,5.40
2022-12-05T19:33:40.883Z,7.97
2022-12-05T19:36:11.948Z,8.87
2022-12-05T19:38:41.366Z,9.23
2022-12-05T19:41:11.296Z,7.73
2022-12-05T19:43:40.104Z,7.33
2022-12-05T19:46:10.057Z,7.00
2022-12-05T19:48:39.606Z,7.50
2022-12-05T19:51:07.911Z,9.57
2022-12-05T19:53:37.852Z,7.00
2022-12-05T19:56:08.749Z,9.37
2022-12-05T19:58:37.387Z,6.47
2022-12-05T20:01:09.637Z,8.20
2022-12-05T20:03:38.809Z,8.17
2022-12-05T20:06:08.232Z,7.83
2022-12-05T20:08:36.915Z,6.73
2022-12-05T20:11:06.169Z,10.73
2022-12-05T20:13:50.467Z,10.40
2022-12-05T20:16:21.494Z,8.40
2022-12-05T20:18:51.392Z,6.70
2022-12-05T20:21:21.985Z,5.47
2022-12-05T20:23:50.225Z,13.60
2022-12-05T20:26:20.490Z,5.47
2022-12-05T20:28:48.602Z,6.63
2022-12-05T20:31:18.911Z,5.80
2022-12-05T20:33:47.758Z,5.03
2022-12-05T20:36:18.887Z,7.37
2022-12-05T20:38:47.581Z,6.00
2022-12-05T20:41:17.038Z,6.07
2022-12-05T20:43:45.907Z,5.70
2022-12-05T20:46:15.864Z,7.33
2022-12-05T20:48:44.512Z,7.37
2022-12-05T20:51:14.117Z,7.30
2022-12-05T20:53:44.905Z,5.73
2022-12-05T20:56:14.263Z,8.87
2022-12-05T20:58:42.679Z,5.43
2022-12-05T21:01:12.504Z,6.33
2022-12-05T21:03:42.870Z,9.63
2022-12-05T21:06:12.454Z,8.97
2022-12-05T21:08:40.560Z,6.97
2022-12-05T21:11:10.999Z,8.03
2022-12-05T21:13:38.993Z,6.63
2022-12-05T21:16:09.477Z,7.43
2022-12-05T21:18:37.835Z,6.83
2022-12-05T21:21:07.308Z,9.93
2022-12-05T21:23:35.310Z,5.83
2022-12-05T21:26:05.008Z,6.77
2022-12-05T21:28:35.838Z,8.30
2022-12-05T21:31:08.858Z,7.57
2022-12-05T21:33:36.987Z,6.43
2022-12-05T21:36:05.509Z,6.23
2022-12-05T21:38:33.554Z,7.17
2022-12-05T21:41:01.183Z,5.97
2022-12-05T21:43:29.222Z,7.43
2022-12-05T21:45:58.572Z,7.00
2022-12-05T21:48:26.755Z,6.87
2022-12-05T21:50:55.179Z,7.80
2022-12-05T21:53:23.572Z,6.33
2022-12-05T21:56:00.451Z,6.27
2022-12-05T21:58:28.470Z,6.33
2022-12-05T22:00:56.201Z,8.27
2022-12-05T22:03:25.384Z,7.33
2022-12-05T22:06:01.114Z,8.13
2022-12-05T22:08:29.972Z,7.57
2022-12-05T22:11:03.431Z,7.30
2022-12-05T22:13:31.988Z,6.73
2022-12-05T22:16:00.137Z,7.03
2022-12-05T22:18:29.800Z,6.93
2022-12-05T22:20:57.824Z,6.47
2022-12-05T22:23:25.730Z,6.33
2022-12-05T22:25:58.053Z,6.67
2022-12-05T22:28:25.974Z,7.67
2022-12-05T22:30:55.161Z,6.73
2022-12-05T22:33:23.167Z,6.57
2022-12-05T22:35:56.927Z,8.50
2022-12-05T22:38:29.644Z,6.60
2022-12-05T22:40:59.931Z,6.43
2022-12-05T22:43:29.061Z,7.00
2022-12-05T22:45:57.070Z,6.90
2022-12-05T22:48:25.113Z,6.23
2022-12-05T22:50:55.252Z,6.30
2022-12-05T22:53:24.704Z,6.60
2022-12-05T22:55:55.818Z,7.83
2022-12-05T22:58:23.438Z,5.90
2022-12-05T23:00:51.139Z,4.97
2022-12-05T23:03:18.941Z,7.53
2022-12-05T23:05:46.653Z,8.17
2022-12-05T23:08:15.903Z,5.73
2022-12-05T23:10:43.691Z,7.07
2022-12-05T23:13:11.728Z,7.13
2022-12-05T23:15:39.555Z,5.97
2022-12-05T23:18:08.524Z,6.90
2022-12-05T23:20:37.781Z,6.20
2022-12-05T23:23:05.512Z,6.37
2022-12-05T23:25:34.574Z,7.67
2022-12-05T23:28:02.342Z,6.60
2022-12-05T23:30:30.118Z,8.07
2022-12-05T23:32:57.831Z,6.87
2022-12-05T23:35:25.671Z,6.27
2022-12-05T23:37:56.319Z,7.43
2022-12-05T23:40:24.519Z,6.30
2022-12-05T23:42:53.542Z,6.23
2022-12-05T23:45:21.214Z,6.03
2022-12-05T23:47:48.879Z,6.93
2022-12-05T23:50:16.684Z,5.83
2022-12-05T23:52:44.396Z,5.43
2022-12-05T23:55:12.057Z,4.80
2022-12-05T23:57:39.704Z,5.20
